Time;durP1;ratioP1;P1;durP2;ratioP2;P2;SDS_P1;SDS_P2;PMS_P1;PMS_P2;Temp;Humidity;BMP_temperature;BMP_pressure;BME280_temperature;BME280_humidity;BME280_pressure;Samples;Min_cycle;Max_cycle;Signal;HPM_P1;HPM_P2
2023/06/27 00:01:39;;;;;;;;;3.00;3.00;;;;;17.71;100.00;98033.81;4948568;28;102030;-73
2023/06/27 00:04:15;;;;;;;;;2.00;2.00;;;;;17.72;100.00;98024.53;4950965;28;102421;-73
2023/06/27 00:07:05;;;;;;;;;5.00;5.00;;;;;17.71;100.00;98009.22;4951374;28;101969;-73
2023/06/27 00:09:46;;;;;;;;;4.67;4.33;;;;;17.56;100.00;97987.19;4949841;28;104087;-73
2023/06/27 00:12:44;;;;;;;;;5.67;5.00;;;;;17.53;100.00;97967.75;4948282;28;102415;-73
2023/06/27 00:15:26;;;;;;;;;10.00;9.00;;;;;17.03;100.00;97966.19;4950256;28;103394;-73
2023/06/27 00:17:55;;;;;;;;;8.00;7.25;;;;;17.00;100.00;97974.09;4955263;28;102149;-73
2023/06/27 00:20:22;;;;;;;;;8.00;7.00;;;;;17.02;100.00;97970.00;4950103;28;104173;-72
2023/06/27 00:22:49;;;;;;;;;5.75;4.00;;;;;17.09;100.00;97997.13;4956564;28;102097;-73
2023/06/27 00:25:16;;;;;;;;;4.00;4.00;;;;;17.21;100.00;98015.00;4956200;28;102351;-73
2023/06/27 00:27:43;;;;;;;;;4.75;4.25;;;;;17.29;100.00;98014.53;4956995;28;101980;-73
2023/06/27 00:30:11;;;;;;;;;6.00;6.00;;;;;17.22;100.00;98018.56;4954903;28;104006;-73
2023/06/27 00:32:38;;;;;;;;;5.00;4.33;;;;;17.27;100.00;98021.34;4951559;28;102185;-73
2023/06/27 00:35:05;;;;;;;;;4.00;3.00;;;;;17.34;100.00;98019.22;4948204;28;102157;-73
2023/06/27 00:37:32;;;;;;;;;2.00;2.00;;;;;17.37;100.00;98016.00;4950772;28;107270;-73
2023/06/27 00:39:59;;;;;;;;;4.00;4.00;;;;;17.33;100.00;98012.13;4952355;28;104003;-73
2023/06/27 00:42:27;;;;;;;;;4.67;4.00;;;;;17.20;100.00;98012.56;4952160;28;103267;-73
2023/06/27 00:44:54;;;;;;;;;7.00;7.00;;;;;16.95;100.00;97991.25;4953477;28;102193;-73
2023/06/27 00:47:21;;;;;;;;;5.50;5.50;;;;;17.01;100.00;97978.47;4951857;28;104815;-73
2023/06/27 00:49:48;;;;;;;;;5.00;5.00;;;;;17.15;100.00;98004.31;4943023;28;108676;-73
2023/06/27 00:52:15;;;;;;;;;2.00;2.00;;;;;17.18;100.00;98006.50;4954259;28;103259;-73
2023/06/27 00:54:42;;;;;;;;;3.00;2.00;;;;;17.30;100.00;98029.84;4952773;28;102352;-73
2023/06/27 00:57:09;;;;;;;;;2.00;2.00;;;;;17.35;100.00;98040.00;4952082;28;102318;-73
2023/06/27 00:59:38;;;;;;;;;2.00;2.00;;;;;17.42;100.00;98052.38;4955608;28;106649;-73
2023/06/27 01:02:05;;;;;;;;;1.00;1.00;;;;;17.48;100.00;98052.44;4951391;28;102321;-73
2023/06/27 01:04:35;;;;;;;;;1.00;1.00;;;;;17.57;100.00;98076.31;4952269;28;102177;-73
2023/06/27 01:07:26;;;;;;;;;2.00;2.00;;;;;17.62;100.00;98083.78;4953158;28;102258;-73
2023/06/27 01:10:37;;;;;;;;;3.67;3.00;;;;;17.67;100.00;98084.66;4953628;28;107776;-73
2023/06/27 01:13:48;;;;;;;;;2.33;1.00;;;;;17.68;100.00;98075.38;4867382;28;102039;-73
2023/06/27 01:16:36;;;;;;;;;3.00;2.67;;;;;17.66;100.00;98072.06;4950345;28;102005;-74
2023/06/27 01:19:13;;;;;;;;;2.00;2.00;;;;;17.68;100.00;98091.78;4951366;28;102704;-74
2023/06/27 01:21:42;;;;;;;;;3.67;3.00;;;;;17.70;100.00;98097.78;4954323;28;103452;-74
2023/06/27 01:24:11;;;;;;;;;3.00;3.00;;;;;17.70;100.00;98064.97;4953594;28;103611;-74
2023/06/27 01:26:38;;;;;;;;;9.00;8.00;;;;;17.43;100.00;98034.06;4951168;28;105481;-74
2023/06/27 01:29:05;;;;;;;;;9.75;9.75;;;;;17.43;100.00;97993.06;4954560;28;102488;-74
2023/06/27 01:31:47;;;;;;;;;4.67;4.67;;;;;17.42;100.00;98003.19;4953246;28;104260;-74
2023/06/27 01:34:36;;;;;;;;;7.00;6.75;;;;;17.22;100.00;97983.06;4952255;28;102095;-74
2023/06/27 01:37:36;;;;;;;;;4.00;3.33;;;;;17.27;100.00;97956.59;4951932;28;102336;-74
2023/06/27 01:40:11;;;;;;;;;3.00;3.00;;;;;17.33;100.00;97965.69;4948801;28;102396;-73
2023/06/27 01:42:41;;;;;;;;;2.67;1.67;;;;;17.31;100.00;97985.06;4952621;28;103800;-73
2023/06/27 01:45:11;;;;;;;;;1.67;1.67;;;;;17.37;100.00;97984.03;4956536;28;102189;-74
2023/06/27 01:47:41;;;;;;;;;1.67;1.67;;;;;17.44;100.00;97982.97;4958455;28;102311;-74
2023/06/27 01:50:09;;;;;;;;;1.00;1.00;;;;;17.43;100.00;97976.69;4957854;28;102180;-74
2023/06/27 01:52:36;;;;;;;;;2.00;2.00;;;;;17.47;100.00;97988.72;4955023;28;104152;-74
2023/06/27 01:55:04;;;;;;;;;2.00;2.00;;;;;17.46;100.00;97987.13;4949553;28;107533;-74
2023/06/27 01:57:31;;;;;;;;;1.00;1.00;;;;;17.46;100.00;97989.84;4948696;28;102765;-74
2023/06/27 01:59:58;;;;;;;;;1.00;1.00;;;;;17.45;100.00;97980.00;4948248;28;102407;-74
2023/06/27 02:02:25;;;;;;;;;1.00;1.00;;;;;17.48;100.00;97975.91;4949573;28;104384;-73
2023/06/27 02:04:52;;;;;;;;;2.33;1.67;;;;;17.45;100.00;97974.53;4954183;28;102264;-74
2023/06/27 02:07:19;;;;;;;;;1.00;1.00;;;;;17.45;100.00;97974.53;4953334;28;107246;-74
2023/06/27 02:09:46;;;;;;;;;2.00;2.00;;;;;17.44;100.00;97972.88;4948704;28;103111;-74
2023/06/27 02:12:13;;;;;;;;;3.00;2.00;;;;;17.43;100.00;97976.69;4949004;28;104027;-74
2023/06/27 02:14:40;;;;;;;;;5.00;5.00;;;;;17.34;100.00;97978.22;4954166;28;102237;-74
2023/06/27 02:17:08;;;;;;;;;4.00;4.00;;;;;17.35;100.00;97985.34;4952388;28;102063;-74
2023/06/27 02:19:35;;;;;;;;;3.00;2.00;;;;;17.39;100.00;97991.94;4956294;28;102781;-74
2023/06/27 02:22:02;;;;;;;;;3.25;3.25;;;;;17.35;100.00;97985.34;4956039;28;105030;-74
2023/06/27 02:24:29;;;;;;;;;2.33;2.33;;;;;17.39;100.00;97997.41;4954626;28;101954;-73
2023/06/27 02:26:56;;;;;;;;;2.00;2.00;;;;;17.42;100.00;98007.03;4956806;28;102958;-73
2023/06/27 02:29:23;;;;;;;;;2.00;2.00;;;;;17.43;100.00;98009.47;4959028;28;102163;-74
2023/06/27 02:31:50;;;;;;;;;2.33;1.67;;;;;17.46;100.00;98008.16;4955672;28;108572;-74
2023/06/27 02:34:17;;;;;;;;;4.00;4.00;;;;;17.42;100.00;98010.59;4951901;28;103097;-74
2023/06/27 02:36:44;;;;;;;;;3.00;2.67;;;;;17.32;100.00;97994.09;4956916;28;102297;-74
2023/06/27 02:39:11;;;;;;;;;1.33;1.00;;;;;17.44;100.00;98011.13;4955257;28;101819;-73
2023/06/27 02:41:38;;;;;;;;;3.00;2.00;;;;;17.42;100.00;98014.13;4955663;28;104060;-73
2023/06/27 02:44:05;;;;;;;;;3.67;3.67;;;;;17.41;100.00;98014.41;4955002;28;103214;-73
2023/06/27 02:46:32;;;;;;;;;4.00;4.00;;;;;17.45;100.00;98010.06;4956318;28;102002;-73
2023/06/27 02:48:59;;;;;;;;;4.00;4.00;;;;;17.47;100.00;98013.34;4957799;28;102350;-73
2023/06/27 02:51:26;;;;;;;;;2.67;2.67;;;;;17.47;100.00;98007.88;4956436;28;105256;-73
2023/06/27 02:53:53;;;;;;;;;2.00;1.33;;;;;17.49;100.00;98018.56;4957089;28;102297;-73
2023/06/27 02:56:20;;;;;;;;;2.00;2.00;;;;;17.50;100.00;98021.03;4953091;28;103441;-73
2023/06/27 02:58:47;;;;;;;;;3.00;2.00;;;;;17.49;100.00;98016.66;4956637;28;102140;-73
2023/06/27 03:01:14;;;;;;;;;2.33;2.33;;;;;17.51;100.00;98016.41;4955025;28;103969;-73
2023/06/27 03:03:43;;;;;;;;;3.67;3.67;;;;;17.51;100.00;98014.50;4955013;28;102005;-73
2023/06/27 03:06:11;;;;;;;;;4.00;4.00;;;;;17.51;100.00;98017.22;4955955;28;102077;-73
2023/06/27 03:08:38;;;;;;;;;4.67;3.67;;;;;17.52;100.00;98018.84;4957387;28;102024;-73
2023/06/27 03:11:05;;;;;;;;;3.00;2.67;;;;;17.49;100.00;98002.97;4955622;28;104019;-73
2023/06/27 03:13:32;;;;;;;;;3.67;3.00;;;;;17.56;100.00;98006.31;4955243;28;102070;-73
2023/06/27 03:16:00;;;;;;;;;4.00;2.67;;;;;17.59;100.00;98011.31;4953546;28;102855;-73
2023/06/27 03:18:28;;;;;;;;;2.33;1.33;;;;;17.61;100.00;98011.03;4957762;28;103256;-73
2023/06/27 03:20:55;;;;;;;;;2.00;2.00;;;;;17.62;100.00;98013.50;4956237;28;104042;-70
2023/06/27 03:23:22;;;;;;;;;4.00;4.00;;;;;17.48;100.00;97995.03;4960002;28;102116;-73
2023/06/27 03:25:49;;;;;;;;;1.33;1.33;;;;;17.64;100.00;98018.72;4957090;28;103316;-74
2023/06/27 03:28:16;;;;;;;;;2.00;2.00;;;;;17.62;100.00;98012.69;4954991;28;102457;-73
2023/06/27 03:30:43;;;;;;;;;3.00;2.67;;;;;17.66;100.00;98009.16;4957594;28;103995;-73
2023/06/27 03:33:19;;;;;;;;;3.00;2.00;;;;;17.71;100.00;98013.84;4953863;28;102296;-74
2023/06/27 03:35:49;;;;;;;;;3.00;3.00;;;;;17.72;100.00;98008.13;4955605;28;102030;-74
2023/06/27 03:38:19;;;;;;;;;3.00;3.00;;;;;17.75;100.00;98007.59;4957600;28;101995;-73
2023/06/27 03:40:46;;;;;;;;;3.00;2.00;;;;;17.77;100.00;98019.13;4957365;28;104049;-73
2023/06/27 03:43:13;;;;;;;;;4.67;4.67;;;;;17.79;100.00;98014.19;4956234;28;102573;-73
2023/06/27 03:45:41;;;;;;;;;2.33;2.00;;;;;17.80;100.00;98007.66;4955080;28;103341;-73
2023/06/27 03:48:09;;;;;;;;;3.00;3.00;;;;;17.82;100.00;98008.22;4951398;28;102857;-74
2023/06/27 03:50:36;;;;;;;;;2.00;2.00;;;;;17.86;100.00;98019.47;4944157;28;105580;-73
2023/06/27 03:53:04;;;;;;;;;2.00;2.00;;;;;17.88;100.00;98006.31;4949938;28;102774;-73
2023/06/27 03:55:33;;;;;;;;;3.00;2.00;;;;;17.90;100.00;98009.63;4951085;28;102293;-74
2023/06/27 03:58:01;;;;;;;;;2.00;2.00;;;;;17.95;100.00;98014.31;4952726;28;102061;-73
2023/06/27 04:00:29;;;;;;;;;3.00;3.00;;;;;17.98;100.00;98016.53;4931967;28;108773;-73
2023/06/27 04:02:56;;;;;;;;;3.00;3.00;;;;;17.99;100.00;98019.00;4933352;28;103246;-73
2023/06/27 04:05:23;;;;;;;;;3.00;3.00;;;;;18.01;100.00;98011.34;4931606;28;103389;-73
2023/06/27 04:07:50;;;;;;;;;4.00;3.00;;;;;18.00;100.00;98000.69;4931759;28;102087;-73
2023/06/27 04:10:18;;;;;;;;;4.00;4.00;;;;;18.01;100.00;98016.03;4931956;28;106526;-73
2023/06/27 04:12:46;;;;;;;;;3.00;3.00;;;;;18.02;100.00;98014.91;4929693;28;102081;-75
2023/06/27 04:15:13;;;;;;;;;5.33;3.00;;;;;18.02;100.00;98012.16;4931688;28;101900;-73
2023/06/27 04:17:40;;;;;;;;;5.00;4.00;;;;;18.01;100.00;98008.59;4934512;28;102160;-72
2023/06/27 04:20:08;;;;;;;;;7.00;5.25;;;;;17.98;100.00;98009.16;4932831;28;104151;-72
2023/06/27 04:22:35;;;;;;;;;6.00;5.00;;;;;18.01;100.00;98010.56;4930941;28;101959;-72
2023/06/27 04:25:02;;;;;;;;;4.00;4.00;;;;;18.03;100.00;98016.56;4932210;28;102501;-73
2023/06/27 04:27:29;;;;;;;;;3.00;3.00;;;;;18.05;100.00;98009.75;4929679;28;102800;-72
2023/06/27 04:29:57;;;;;;;;;4.00;4.00;;;;;18.06;100.00;98002.34;4934608;28;104005;-72
2023/06/27 04:32:24;;;;;;;;;6.00;5.00;;;;;18.07;100.00;97993.06;4933945;28;102478;-73
2023/06/27 04:34:51;;;;;;;;;4.00;4.00;;;;;18.08;100.00;98000.19;4935825;28;102390;-72
2023/06/27 04:37:18;;;;;;;;;5.33;5.00;;;;;18.06;100.00;98007.81;4934594;28;102108;-72
2023/06/27 04:39:45;;;;;;;;;5.00;5.00;;;;;18.02;100.00;98003.97;4932940;28;104010;-72
2023/06/27 04:42:12;;;;;;;;;5.67;5.67;;;;;18.00;100.00;98003.41;4933769;28;102303;-72
2023/06/27 04:44:39;;;;;;;;;3.67;3.67;;;;;17.93;100.00;98003.63;4928294;28;102422;-72
2023/06/27 04:47:06;;;;;;;;;8.00;7.00;;;;;17.86;100.00;98002.22;4931618;28;102139;-72
2023/06/27 04:49:33;;;;;;;;;8.33;7.00;;;;;17.87;100.00;97999.22;4932194;28;104159;-73
2023/06/27 04:52:00;;;;;;;;;8.67;8.00;;;;;17.76;100.00;97987.38;4930183;28;101942;-72
2023/06/27 04:54:27;;;;;;;;;6.00;6.00;;;;;17.86;100.00;98013.16;4930367;28;101955;-72
2023/06/27 04:56:54;;;;;;;;;9.67;9.67;;;;;17.79;100.00;98000.53;4935565;28;102717;-72
2023/06/27 04:59:38;;;;;;;;;15.00;12.75;;;;;17.71;100.00;98008.38;4929651;28;104281;-72
2023/06/27 05:02:05;;;;;;;;;14.50;13.75;;;;;17.56;100.00;98017.25;4931006;28;103215;-73
2023/06/27 05:04:32;;;;;;;;;16.25;15.75;;;;;17.55;100.00;98020.25;4932895;28;102040;-73
2023/06/27 05:06:59;;;;;;;;;14.50;13.00;;;;;17.51;100.00;98022.69;4932762;28;102246;-74
2023/06/27 05:09:26;;;;;;;;;17.50;16.50;;;;;17.32;100.00;98024.97;4932378;28;104183;-75
2023/06/27 05:11:53;;;;;;;;;15.25;14.25;;;;;17.24;100.00;98039.09;4932646;28;102480;-75
2023/06/27 05:14:20;;;;;;;;;16.00;14.00;;;;;17.25;100.00;98046.19;4931166;28;102214;-74
2023/06/27 05:16:47;;;;;;;;;15.00;12.00;;;;;17.22;100.00;98034.97;4932657;28;102260;-74
2023/06/27 05:19:14;;;;;;;;;12.50;11.00;;;;;17.27;100.00;98043.22;4932786;28;104004;-74
2023/06/27 05:21:41;;;;;;;;;13.00;12.50;;;;;17.27;100.00;98040.47;4938854;28;103154;-74
2023/06/27 05:24:08;;;;;;;;;13.75;13.75;;;;;17.16;100.00;98035.97;4937651;28;101861;-73
2023/06/27 05:26:35;;;;;;;;;16.25;13.50;;;;;17.15;100.00;98045.28;4939027;28;102365;-73
2023/06/27 05:29:02;;;;;;;;;11.50;10.50;;;;;17.17;100.00;98056.75;4936746;28;103934;-72
2023/06/27 05:31:29;;;;;;;;;14.25;13.50;;;;;17.10;100.00;98059.72;4937639;28;102022;-72
2023/06/27 05:33:56;;;;;;;;;9.75;9.00;;;;;17.18;100.00;98072.06;4939505;28;101892;-72
2023/06/27 05:36:23;;;;;;;;;13.25;12.25;;;;;16.86;100.00;98064.59;4940425;28;101945;-73
2023/06/27 05:38:50;;;;;;;;;13.25;12.00;;;;;16.86;100.00;98075.53;4938336;28;104002;-73
2023/06/27 05:41:18;;;;;;;;;10.50;10.25;;;;;16.93;100.00;98078.88;4937637;28;102013;-73
2023/06/27 05:43:45;;;;;;;;;12.50;10.00;;;;;17.07;100.00;98083.97;4939460;28;102222;-72
2023/06/27 05:46:12;;;;;;;;;13.00;12.00;;;;;17.13;100.00;98080.22;4942704;28;102221;-73
2023/06/27 05:48:40;;;;;;;;;10.00;8.00;;;;;17.14;100.00;98087.34;4938563;28;108922;-72
2023/06/27 05:51:08;;;;;;;;;9.50;9.50;;;;;17.10;100.00;98091.66;4939708;28;102054;-73
2023/06/27 05:53:35;;;;;;;;;11.00;11.00;;;;;17.18;100.00;98086.56;4938806;28;102082;-72
2023/06/27 05:56:02;;;;;;;;;12.75;12.00;;;;;17.19;100.00;98096.41;4939668;28;102028;-72
2023/06/27 05:58:29;;;;;;;;;9.00;9.00;;;;;17.28;100.00;98094.06;4937684;28;107047;-72
2023/06/27 06:00:56;;;;;;;;;7.00;7.00;;;;;17.40;100.00;98098.28;4937690;28;101976;-72
2023/06/27 06:03:23;;;;;;;;;8.33;7.67;;;;;17.38;100.00;98111.38;4938181;28;102244;-73
2023/06/27 06:05:50;;;;;;;;;11.00;11.00;;;;;17.06;100.00;98124.13;4940045;28;101975;-77
2023/06/27 06:08:18;;;;;;;;;10.75;10.00;;;;;17.06;100.00;98117.84;4937343;28;103985;-72
2023/06/27 06:10:49;;;;;;;;;9.75;9.00;;;;;17.08;100.00;98110.19;4935663;28;101931;-72
2023/06/27 06:13:17;;;;;;;;;11.00;9.00;;;;;17.00;100.00;98114.22;4932203;28;101947;-72
2023/06/27 06:15:44;;;;;;;;;11.50;9.00;;;;;17.04;100.00;98098.13;4930512;28;102220;-72
2023/06/27 06:18:11;;;;;;;;;9.50;8.50;;;;;17.20;100.00;98108.19;4933390;28;104050;-73
2023/06/27 06:20:38;;;;;;;;;9.00;9.00;;;;;17.32;100.00;98108.84;4926449;28;102625;-72
2023/06/27 06:23:05;;;;;;;;;9.00;9.00;;;;;17.67;100.00;98114.72;4928461;28;102252;-72
2023/06/27 06:25:33;;;;;;;;;11.50;10.50;;;;;17.77;100.00;98114.84;4940604;28;102135;-73
2023/06/27 06:28:00;;;;;;;;;10.25;9.50;;;;;17.63;100.00;98113.59;4934180;28;108694;-73
2023/06/27 06:30:27;;;;;;;;;9.00;9.00;;;;;17.53;100.00;98135.31;4933469;28;102384;-74
2023/06/27 06:32:54;;;;;;;;;11.00;10.00;;;;;17.34;100.00;98112.16;4933661;28;103149;-73
2023/06/27 06:35:21;;;;;;;;;9.67;8.67;;;;;17.45;99.26;98122.13;4938291;28;102403;-74
2023/06/27 06:37:48;;;;;;;;;10.50;10.50;;;;;17.24;99.39;98125.72;4931929;28;104797;-74
2023/06/27 06:40:15;;;;;;;;;10.00;9.25;;;;;17.43;100.00;98129.75;4938024;28;102537;-75
2023/06/27 06:42:42;;;;;;;;;8.50;8.50;;;;;17.69;100.00;98131.72;4937878;28;102176;-73
2023/06/27 06:45:09;;;;;;;;;7.33;6.67;;;;;17.92;100.00;98133.28;4938492;28;102480;-75
2023/06/27 06:47:36;;;;;;;;;6.33;6.33;;;;;18.07;98.59;98127.13;4934455;28;103929;-74
2023/06/27 06:50:05;;;;;;;;;6.33;6.33;;;;;18.07;99.15;98119.75;4934337;28;102011;-74
2023/06/27 06:52:32;;;;;;;;;8.00;8.00;;;;;17.81;97.25;98134.28;4940686;28;102202;-73
2023/06/27 06:54:59;;;;;;;;;7.33;7.33;;;;;17.79;98.46;98150.94;4938930;28;102326;-73
2023/06/27 06:57:26;;;;;;;;;10.50;10.50;;;;;17.58;98.53;98153.69;4933713;28;104256;-73
2023/06/27 06:59:53;;;;;;;;;8.75;8.25;;;;;17.15;99.89;98108.13;4936835;28;102134;-73
2023/06/27 07:02:20;;;;;;;;;10.00;9.00;;;;;17.40;100.00;98146.66;4930370;28;102122;-72
2023/06/27 07:04:47;;;;;;;;;6.67;6.67;;;;;17.49;100.00;98142.38;4934298;28;102132;-72
2023/06/27 07:07:14;;;;;;;;;6.33;6.33;;;;;17.51;100.00;98148.44;4936135;28;104407;-72
2023/06/27 07:09:41;;;;;;;;;6.67;6.00;;;;;17.59;100.00;98142.53;4932869;28;102358;-72
2023/06/27 07:12:08;;;;;;;;;9.25;9.00;;;;;17.51;98.78;98142.97;4933945;28;102061;-73
2023/06/27 07:14:35;;;;;;;;;9.00;8.00;;;;;17.48;100.00;98143.47;4933567;28;102119;-73
2023/06/27 07:17:02;;;;;;;;;10.50;8.75;;;;;17.33;100.00;98118.72;4937466;28;103990;-73
2023/06/27 07:19:29;;;;;;;;;7.33;7.33;;;;;17.60;100.00;98122.31;4937243;28;102143;-71
2023/06/27 07:21:56;;;;;;;;;6.75;5.25;;;;;17.79;100.00;98140.00;4938857;28;103417;-72
2023/06/27 07:24:23;;;;;;;;;7.33;6.67;;;;;17.91;100.00;98139.03;4939274;28;102078;-72
2023/06/27 07:26:51;;;;;;;;;6.67;6.33;;;;;18.01;100.00;98141.88;4937437;28;104084;-72
2023/06/27 07:29:18;;;;;;;;;9.00;8.00;;;;;17.94;100.00;98147.53;4935993;28;102474;-73
2023/06/27 07:31:45;;;;;;;;;11.75;11.00;;;;;17.78;100.00;98143.84;4937309;28;102395;-76
2023/06/27 07:34:12;;;;;;;;;15.00;14.00;;;;;17.63;100.00;98140.94;4937864;28;102229;-74
2023/06/27 07:36:39;;;;;;;;;13.50;11.50;;;;;17.88;99.79;98139.56;4937157;28;103986;-72
2023/06/27 07:39:06;;;;;;;;;9.33;9.33;;;;;17.97;99.75;98144.28;4936176;28;102076;-73
2023/06/27 07:41:33;;;;;;;;;13.00;12.00;;;;;17.89;95.96;98146.66;4936174;28;102116;-73
2023/06/27 07:44:00;;;;;;;;;14.75;13.75;;;;;17.92;98.29;98141.47;4936616;28;102396;-73
2023/06/27 07:46:27;;;;;;;;;11.50;10.75;;;;;17.96;97.64;98136.34;4936623;28;104291;-73
2023/06/27 07:48:58;;;;;;;;;9.33;9.33;;;;;18.01;98.09;98139.13;4938923;28;102359;-72
2023/06/27 07:51:27;;;;;;;;;11.00;10.25;;;;;17.81;98.11;98143.31;4936153;28;102428;-73
2023/06/27 07:53:56;;;;;;;;;14.00;11.67;;;;;17.72;98.11;98142.13;4937034;28;102003;-72
2023/06/27 07:56:23;;;;;;;;;11.67;11.00;;;;;17.75;99.33;98144.34;4935895;28;108718;-72
2023/06/27 07:58:50;;;;;;;;;11.67;11.00;;;;;17.76;99.63;98146.00;4936430;28;102400;-72
2023/06/27 08:01:17;;;;;;;;;10.67;10.00;;;;;17.82;98.70;98146.88;4926776;28;102130;-73
2023/06/27 08:03:44;;;;;;;;;13.00;12.00;;;;;17.70;99.85;98152.50;4937225;28;102065;-72
2023/06/27 08:06:12;;;;;;;;;10.25;10.25;;;;;17.88;100.00;98155.97;4935803;28;104208;-72
2023/06/27 08:08:38;;;;;;;;;12.50;11.50;;;;;17.83;99.25;98163.00;4936099;28;102431;-72
2023/06/27 08:11:06;;;;;;;;;13.25;13.25;;;;;17.73;98.24;98157.47;4937273;28;102436;-72
2023/06/27 08:13:34;;;;;;;;;14.00;12.25;;;;;17.79;99.73;98161.88;4935770;28;102297;-72
2023/06/27 08:16:01;;;;;;;;;14.25;13.25;;;;;17.87;99.12;98151.56;4930749;28;104002;-72
2023/06/27 08:18:28;;;;;;;;;12.00;11.00;;;;;18.11;99.38;98152.88;4936630;28;102428;-71
2023/06/27 08:20:55;;;;;;;;;14.75;11.50;;;;;18.22;97.13;98154.63;4934187;28;102366;-72
2023/06/27 08:23:22;;;;;;;;;22.50;19.75;;;;;18.07;96.01;98157.22;4936054;28;102339;-73
2023/06/27 08:25:49;;;;;;;;;21.75;20.00;;;;;18.03;97.43;98176.06;4934463;28;103987;-73
2023/06/27 08:28:16;;;;;;;;;20.25;20.00;;;;;17.86;96.08;98171.78;4936083;28;102801;-73
2023/06/27 08:30:43;;;;;;;;;22.50;20.00;;;;;18.01;94.92;98175.50;4936053;28;102342;-72
2023/06/27 08:33:10;;;;;;;;;17.00;15.50;;;;;18.19;92.75;98177.06;4936544;28;102380;-73
2023/06/27 08:35:38;;;;;;;;;20.50;19.25;;;;;18.18;92.67;98172.66;4935549;28;104294;-73
2023/06/27 08:38:05;;;;;;;;;21.75;21.00;;;;;18.13;91.59;98170.69;4934897;28;103187;-73
2023/06/27 08:40:37;;;;;;;;;21.50;21.00;;;;;18.29;93.28;98175.22;4935675;28;105823;-73
2023/06/27 08:43:06;;;;;;;;;19.00;18.00;;;;;18.68;91.50;98175.84;4934341;28;102281;-72
2023/06/27 08:45:36;;;;;;;;;17.00;15.00;;;;;18.89;86.49;98181.44;4935466;28;104024;-72
2023/06/27 08:48:06;;;;;;;;;15.00;15.00;;;;;18.81;86.25;98173.72;4939006;28;102391;-73
2023/06/27 08:50:39;;;;;;;;;20.00;19.75;;;;;18.44;86.45;98177.25;4931010;28;102374;-79
2023/06/27 08:53:10;;;;;;;;;18.00;16.00;;;;;18.27;86.37;98174.66;4931545;28;107258;-73
2023/06/27 08:55:44;;;;;;;;;15.75;15.50;;;;;18.49;85.27;98173.72;4933001;28;104079;-72
2023/06/27 08:58:15;;;;;;;;;17.67;16.00;;;;;18.39;86.43;98177.22;4935794;28;102614;-73
2023/06/27 09:00:46;;;;;;;;;16.50;16.25;;;;;18.50;86.67;98181.69;4937403;28;102006;-73
2023/06/27 09:03:14;;;;;;;;;22.50;21.00;;;;;18.45;86.83;98184.38;4939746;28;101882;-73
2023/06/27 09:05:43;;;;;;;;;16.50;16.50;;;;;18.70;85.30;98195.56;4935310;28;103994;-76
2023/06/27 09:08:11;;;;;;;;;19.50;19.00;;;;;18.79;84.51;98187.66;4937331;28;102342;-74
2023/06/27 09:10:40;;;;;;;;;18.00;17.75;;;;;18.84;82.42;98178.66;4938966;28;101937;-74
2023/06/27 09:13:09;;;;;;;;;17.00;15.00;;;;;19.19;83.34;98187.06;4941005;28;102217;-74
2023/06/27 09:15:36;;;;;;;;;13.00;12.33;;;;;19.25;82.82;98182.44;4935535;28;104562;-72
2023/06/27 09:18:04;;;;;;;;;17.00;16.50;;;;;19.27;81.51;98189.34;4939619;28;101980;-72
2023/06/27 09:20:34;;;;;;;;;12.33;12.00;;;;;19.42;80.19;98183.06;4939678;28;102431;-73
2023/06/27 09:23:05;;;;;;;;;12.33;12.00;;;;;19.53;82.72;98182.88;4939233;28;102255;-72
2023/06/27 09:25:32;;;;;;;;;19.00;16.33;;;;;19.34;78.03;98184.41;4938829;28;108802;-72
2023/06/27 09:28:14;;;;;;;;;14.33;13.33;;;;;19.34;77.47;98189.91;4934107;28;102068;-72
2023/06/27 09:30:54;;;;;;;;;15.00;14.67;;;;;19.14;76.91;98184.31;4933950;28;103635;-72
2023/06/27 09:33:22;;;;;;;;;10.00;10.00;;;;;18.99;76.93;98186.97;4938815;28;102066;-72
2023/06/27 09:35:52;;;;;;;;;14.00;11.00;;;;;19.14;78.48;98195.25;4937319;28;103785;-74
2023/06/27 09:38:32;;;;;;;;;11.00;11.00;;;;;19.12;74.69;98197.47;4939236;28;102038;-72
2023/06/27 09:41:06;;;;;;;;;7.00;7.00;;;;;19.16;73.27;98199.41;4939932;28;101988;-73
2023/06/27 09:43:35;;;;;;;;;8.00;7.00;;;;;19.05;73.61;98205.91;4938516;28;102077;-72
2023/06/27 09:46:05;;;;;;;;;6.67;6.67;;;;;19.07;70.19;98211.13;4935474;28;109158;-71
2023/06/27 09:48:35;;;;;;;;;7.00;6.33;;;;;19.23;68.34;98221.09;4939133;28;102002;-72
2023/06/27 09:51:07;;;;;;;;;7.67;7.00;;;;;19.25;67.40;98218.09;4937880;28;104374;-73
2023/06/27 09:53:34;;;;;;;;;5.33;5.33;;;;;19.21;69.74;98217.78;4935585;28;102431;-72
2023/06/27 09:56:01;;;;;;;;;7.00;7.00;;;;;19.18;70.85;98201.91;4938628;28;110541;-72
2023/06/27 09:58:30;;;;;;;;;7.33;7.33;;;;;19.34;72.38;98214.56;4939003;28;102207;-72
2023/06/27 10:01:06;;;;;;;;;8.00;8.00;;;;;18.99;71.25;98223.44;4936317;28;102245;-73
2023/06/27 10:03:36;;;;;;;;;8.67;8.33;;;;;18.83;75.08;98227.13;4939058;28;101971;-73
2023/06/27 10:06:03;;;;;;;;;9.33;9.00;;;;;19.08;75.84;98223.75;4932776;28;108260;-74
2023/06/27 10:08:37;;;;;;;;;10.67;10.67;;;;;19.20;77.07;98212.56;4933563;28;101921;-71
2023/06/27 10:11:04;;;;;;;;;9.33;9.33;;;;;19.56;76.11;98215.25;4940191;28;102102;-72
2023/06/27 10:13:32;;;;;;;;;10.67;10.00;;;;;19.75;72.24;98212.03;4938540;28;102796;-72
2023/06/27 10:15:59;;;;;;;;;9.33;9.00;;;;;19.71;70.69;98222.72;4938300;28;104031;-72
2023/06/27 10:18:26;;;;;;;;;9.33;8.33;;;;;19.74;69.95;98208.44;4938644;28;102233;-73
2023/06/27 10:20:57;;;;;;;;;10.00;9.00;;;;;19.79;71.23;98213.13;4936964;28;102544;-73
2023/06/27 10:23:25;;;;;;;;;8.00;7.00;;;;;19.94;70.35;98215.94;4938246;28;102780;-72
2023/06/27 10:25:53;;;;;;;;;10.00;10.00;;;;;19.66;68.43;98222.69;4939697;28;104189;-75
2023/06/27 10:28:20;;;;;;;;;8.00;8.00;;;;;19.99;69.41;98215.94;4935829;28;102134;-72
2023/06/27 10:30:48;;;;;;;;;8.67;8.67;;;;;20.15;67.35;98228.59;4937493;28;102200;-72
2023/06/27 10:33:31;;;;;;;;;7.67;7.33;;;;;20.28;71.32;98208.03;4939887;28;102279;-72
2023/06/27 10:36:05;;;;;;;;;8.33;7.67;;;;;20.05;68.84;98196.47;4934306;28;104060;-72
2023/06/27 10:38:34;;;;;;;;;7.33;6.33;;;;;20.23;69.54;98200.59;4938821;28;102370;-71
2023/06/27 10:41:05;;;;;;;;;9.00;7.00;;;;;20.05;68.56;98215.66;4937081;28;102120;-72
2023/06/27 10:43:47;;;;;;;;;9.67;8.67;;;;;19.52;67.85;98213.31;4939152;28;102543;-74
2023/06/27 10:46:21;;;;;;;;;8.67;8.00;;;;;19.52;68.59;98214.13;4934204;28;108573;-75
2023/06/27 10:48:56;;;;;;;;;7.67;7.67;;;;;19.35;67.58;98213.50;4938387;28;102038;-72
2023/06/27 10:51:24;;;;;;;;;8.67;8.00;;;;;19.47;70.16;98203.16;4930606;28;102274;-72
2023/06/27 10:54:12;;;;;;;;;7.67;6.67;;;;;19.70;69.42;98198.28;4939236;28;102005;-71
2023/06/27 10:56:45;;;;;;;;;5.00;5.00;;;;;19.95;69.60;98190.94;4936652;28;108772;-72
2023/06/27 10:59:15;;;;;;;;;4.33;3.67;;;;;20.22;67.97;98187.97;4937155;28;103578;-72
2023/06/27 11:01:49;;;;;;;;;5.67;5.67;;;;;20.38;68.42;98184.19;4937551;28;102247;-72
2023/06/27 11:04:22;;;;;;;;;6.33;6.33;;;;;20.29;64.74;98180.28;4936133;28;102056;-72
2023/06/27 11:06:49;;;;;;;;;4.67;4.00;;;;;20.21;61.03;98172.59;4937984;28;108995;-72
2023/06/27 11:09:17;;;;;;;;;5.00;5.00;;;;;19.97;62.56;98187.94;4938904;28;102251;-72
2023/06/27 11:11:55;;;;;;;;;3.67;3.33;;;;;20.23;58.16;98184.13;4935178;28;101957;-72
2023/06/27 11:14:38;;;;;;;;;3.67;3.67;;;;;20.01;60.74;98181.63;4934219;28;103628;-72
2023/06/27 11:17:05;;;;;;;;;5.00;5.00;;;;;20.04;59.39;98177.50;4932826;28;108632;-73
2023/06/27 11:19:34;;;;;;;;;4.67;4.67;;;;;19.87;58.36;98183.25;4935539;28;102103;-72
2023/06/27 11:22:02;;;;;;;;;4.33;4.33;;;;;19.94;57.12;98183.81;4935035;28;102131;-72
2023/06/27 11:24:29;;;;;;;;;2.67;2.67;;;;;19.76;56.61;98165.13;4939324;28;102095;-72